createdAt,value
2019-02-28T00:01:47.319Z,6.87
2019-02-28T00:04:16.808Z,6.90
2019-02-28T00:06:46.297Z,7.20
2019-02-28T00:09:15.965Z,7.90
2019-02-28T00:11:45.458Z,8.07
2019-02-28T00:14:14.973Z,7.60
2019-02-28T00:16:44.473Z,7.57
2019-02-28T00:19:13.996Z,7.80
2019-02-28T00:21:43.533Z,7.00
2019-02-28T00:24:13.076Z,7.43
2019-02-28T00:26:46.439Z,7.93
2019-02-28T00:29:13.838Z,7.67
2019-02-28T00:31:43.328Z,7.20
2019-02-28T00:34:12.799Z,8.27
2019-02-28T00:36:42.321Z,7.87
2019-02-28T00:39:11.821Z,8.53
2019-02-28T00:41:44.298Z,7.67
2019-02-28T00:44:12.505Z,7.80
2019-02-28T00:46:45.179Z,7.53
2019-02-28T00:52:01.551Z,7.57
2019-02-28T00:54:31.674Z,9.53
2019-02-28T00:57:01.145Z,9.00
2019-02-28T00:59:31.674Z,9.60
2019-02-28T01:02:01.972Z,10.57
2019-02-28T01:04:31.511Z,10.87
2019-02-28T01:07:00.968Z,10.40
2019-02-28T01:09:31.015Z,9.57
2019-02-28T01:12:00.563Z,9.53
2019-02-28T01:14:32.489Z,9.03
2019-02-28T01:17:01.293Z,7.90
2019-02-28T01:19:30.779Z,8.07
2019-02-28T01:22:00.274Z,7.93
2019-02-28T01:24:34.481Z,8.13
2019-02-28T01:27:00.981Z,8.17
2019-02-28T01:29:33.007Z,8.70
2019-02-28T01:32:01.713Z,8.90
2019-02-28T01:34:32.176Z,8.53
2019-02-28T01:37:02.557Z,8.53
2019-02-28T01:39:32.032Z,9.30
2019-02-28T01:44:48.607Z,8.80
2019-02-28T01:47:20.009Z,9.40
2019-02-28T01:49:49.302Z,10.60
2019-02-28T01:52:18.764Z,9.90
2019-02-28T01:54:48.310Z,9.13
2019-02-28T01:57:17.847Z,10.23
2019-02-28T01:59:47.360Z,9.70
2019-02-28T02:02:16.865Z,9.27
2019-02-28T02:04:46.661Z,9.53
2019-02-28T02:07:16.144Z,8.40
2019-02-28T02:09:46.092Z,9.47
2019-02-28T02:12:16.460Z,8.77
2019-02-28T02:14:45.917Z,8.23
2019-02-28T02:17:15.372Z,8.57
2019-02-28T02:19:44.875Z,8.90
2019-02-28T02:22:14.348Z,8.63
2019-02-28T02:24:43.846Z,9.27
2019-02-28T02:27:16.179Z,9.40
2019-02-28T02:29:44.541Z,9.33
2019-02-28T02:32:13.994Z,8.93
2019-02-28T02:34:43.496Z,9.10
2019-02-28T02:37:12.980Z,9.80
2019-02-28T02:39:42.463Z,9.13
2019-02-28T02:42:12.007Z,10.00
2019-02-28T02:44:41.467Z,9.50
2019-02-28T02:47:10.974Z,9.60
2019-02-28T02:49:40.413Z,9.43
2019-02-28T02:52:09.878Z,9.93
2019-02-28T02:54:39.385Z,10.33
2019-02-28T02:57:08.854Z,9.77
2019-02-28T02:59:39.467Z,10.20
2019-02-28T03:02:09.003Z,9.87
2019-02-28T03:04:38.493Z,10.20
2019-02-28T03:07:07.975Z,9.60
2019-02-28T03:09:43.382Z,9.90
2019-02-28T03:12:10.366Z,10.00
2019-02-28T03:14:39.865Z,9.00
2019-02-28T03:17:11.796Z,9.30
2019-02-28T03:19:40.560Z,8.70
2019-02-28T03:22:10.069Z,9.03
2019-02-28T03:24:39.557Z,9.23
2019-02-28T03:27:09.059Z,8.63
2019-02-28T03:29:43.402Z,8.20
2019-02-28T03:32:09.811Z,9.03
2019-02-28T03:34:39.284Z,8.63
2019-02-28T03:37:08.806Z,8.20
2019-02-28T03:39:38.262Z,8.60
2019-02-28T03:42:07.882Z,8.63
2019-02-28T03:44:37.367Z,8.20
2019-02-28T03:47:06.871Z,8.50
2019-02-28T03:49:36.374Z,8.50
2019-02-28T03:52:06.835Z,8.13
2019-02-28T03:54:36.607Z,7.77
2019-02-28T03:57:06.120Z,8.40
2019-02-28T03:59:35.607Z,8.93
2019-02-28T04:02:05.074Z,8.27
2019-02-28T04:04:34.543Z,8.47
2019-02-28T04:07:04.009Z,8.20
2019-02-28T04:09:33.507Z,8.83
2019-02-28T04:12:07.228Z,8.63
2019-02-28T04:14:34.516Z,11.13
2019-02-28T04:17:03.937Z,13.50
2019-02-28T04:19:33.402Z,13.17
2019-02-28T04:22:02.917Z,11.60
2019-02-28T04:24:32.415Z,11.73
2019-02-28T04:27:06.517Z,10.10
2019-02-28T04:29:33.198Z,10.07
2019-02-28T04:32:02.722Z,10.47
2019-02-28T04:34:32.221Z,11.37
2019-02-28T04:37:01.706Z,11.50
2019-02-28T04:39:31.220Z,10.10
2019-02-28T04:42:00.725Z,11.47
2019-02-28T04:44:30.213Z,11.30
2019-02-28T04:46:59.708Z,12.17
2019-02-28T04:49:29.246Z,12.93
2019-02-28T04:51:58.774Z,11.70
2019-02-28T04:54:28.787Z,12.27
2019-02-28T04:56:58.397Z,13.00
2019-02-28T04:59:27.945Z,13.87
2019-02-28T05:01:57.427Z,12.50
2019-02-28T05:04:26.904Z,13.43
2019-02-28T05:06:56.370Z,13.53
2019-02-28T05:09:25.940Z,12.73
2019-02-28T05:11:55.434Z,12.70
2019-02-28T05:14:24.933Z,14.20
2019-02-28T05:16:54.427Z,14.40
2019-02-28T05:19:23.953Z,13.63
2019-02-28T05:21:54.361Z,13.70
2019-02-28T05:24:23.949Z,13.10
2019-02-28T05:26:53.469Z,12.80
2019-02-28T05:29:23.002Z,13.63
2019-02-28T05:31:52.469Z,12.40
2019-02-28T05:34:21.958Z,12.30
2019-02-28T05:36:51.442Z,10.90
2019-02-28T05:39:20.938Z,10.67
2019-02-28T05:41:50.429Z,9.70
2019-02-28T05:44:21.375Z,10.30
2019-02-28T05:46:51.022Z,8.83
2019-02-28T05:49:20.484Z,8.40
2019-02-28T05:51:49.929Z,8.87
2019-02-28T05:54:19.430Z,8.27
2019-02-28T05:56:48.926Z,9.17
2019-02-28T05:59:18.506Z,7.90
2019-02-28T06:01:48.000Z,8.00
2019-02-28T06:04:17.491Z,7.73
2019-02-28T06:06:46.967Z,8.30
2019-02-28T06:09:16.460Z,8.83
2019-02-28T06:11:46.050Z,7.97
2019-02-28T06:14:15.559Z,7.40
2019-02-28T06:16:46.902Z,7.20
2019-02-28T06:19:16.272Z,7.80
2019-02-28T06:21:45.722Z,7.20
2019-02-28T06:24:15.230Z,7.80
2019-02-28T06:26:44.718Z,8.47
2019-02-28T06:29:14.227Z,8.07
2019-02-28T06:31:45.407Z,7.53
2019-02-28T06:34:15.027Z,7.50
2019-02-28T06:36:44.541Z,6.80
2019-02-28T06:39:14.000Z,6.43
2019-02-28T06:41:43.501Z,7.57
2019-02-28T06:44:13.044Z,7.07
2019-02-28T06:46:42.580Z,7.40
2019-02-28T06:49:12.092Z,7.70
2019-02-28T06:51:41.610Z,7.43
2019-02-28T06:54:11.100Z,8.83
2019-02-28T06:56:40.678Z,8.17
2019-02-28T06:59:10.156Z,8.20
2019-02-28T07:01:39.721Z,8.47
2019-02-28T07:04:11.534Z,8.63
2019-02-28T07:06:40.573Z,8.30
2019-02-28T07:09:10.057Z,8.97
2019-02-28T07:11:39.586Z,8.63
2019-02-28T07:14:12.837Z,9.47
2019-02-28T07:16:40.298Z,9.30
2019-02-28T07:19:09.806Z,8.93
2019-02-28T07:21:42.952Z,9.57
2019-02-28T07:24:10.580Z,9.47
2019-02-28T07:26:40.035Z,9.30
2019-02-28T07:29:12.023Z,10.10
2019-02-28T07:31:40.761Z,10.27
2019-02-28T07:34:10.267Z,9.63
2019-02-28T07:36:41.482Z,10.43
2019-02-28T07:39:11.008Z,9.90
2019-02-28T07:41:41.452Z,10.43
2019-02-28T07:44:11.187Z,10.20
2019-02-28T07:46:42.264Z,10.10
2019-02-28T07:49:11.966Z,9.73
2019-02-28T07:51:41.466Z,10.63
2019-02-28T07:54:12.580Z,10.50
2019-02-28T07:56:43.123Z,10.63
2019-02-28T07:59:13.659Z,9.67
2019-02-28T08:01:43.124Z,10.03
2019-02-28T08:04:12.617Z,9.83
2019-02-28T08:06:42.172Z,10.33
2019-02-28T08:09:32.951Z,9.80
2019-02-28T08:12:02.480Z,10.77
2019-02-28T08:14:32.080Z,10.60
2019-02-28T08:17:01.622Z,10.97
2019-02-28T08:19:31.173Z,10.27
2019-02-28T08:22:00.691Z,10.73
2019-02-28T08:24:30.196Z,10.23
2019-02-28T08:26:59.772Z,10.37
2019-02-28T08:29:29.293Z,10.53
2019-02-28T08:31:58.775Z,10.83
2019-02-28T08:34:28.327Z,10.93
2019-02-28T08:36:57.856Z,10.73
2019-02-28T08:39:27.379Z,10.33
2019-02-28T08:42:02.810Z,10.43
2019-02-28T08:44:28.104Z,9.90
2019-02-28T08:46:57.657Z,9.93
2019-02-28T08:49:27.198Z,9.80
2019-02-28T08:51:56.756Z,11.43
2019-02-28T08:54:27.522Z,10.07
2019-02-28T08:56:57.132Z,10.20
2019-02-28T08:59:26.625Z,10.30
2019-02-28T09:01:56.132Z,9.73
2019-02-28T09:04:25.640Z,9.90
2019-02-28T09:06:55.203Z,10.23
2019-02-28T09:09:24.708Z,9.73
2019-02-28T09:11:58.123Z,9.90
2019-02-28T09:14:25.498Z,9.00
2019-02-28T09:16:55.137Z,9.87
2019-02-28T09:19:24.647Z,9.77
2019-02-28T09:21:54.126Z,9.20
2019-02-28T09:24:23.615Z,9.40
2019-02-28T09:26:53.116Z,9.13
2019-02-28T09:29:22.613Z,9.63
2019-02-28T09:31:52.076Z,8.87
2019-02-28T09:34:21.545Z,8.67
2019-02-28T09:36:55.481Z,9.10
2019-02-28T09:39:22.316Z,8.50
2019-02-28T09:41:51.827Z,9.43
2019-02-28T09:44:21.346Z,8.83
2019-02-28T09:46:51.671Z,9.53
2019-02-28T09:49:21.300Z,9.47
2019-02-28T09:51:50.850Z,9.80
2019-02-28T09:54:21.427Z,10.50
2019-02-28T09:56:51.560Z,10.00
2019-02-28T09:59:21.072Z,10.17
2019-02-28T10:01:50.594Z,9.40
2019-02-28T10:04:20.104Z,9.60
2019-02-28T10:06:51.589Z,9.10
2019-02-28T10:09:20.855Z,9.77
2019-02-28T10:11:50.412Z,9.43
2019-02-28T10:14:19.972Z,10.00
2019-02-28T10:16:52.569Z,9.47
2019-02-28T10:19:20.729Z,9.77
2019-02-28T10:21:52.186Z,9.50
2019-02-28T10:24:21.449Z,10.10
2019-02-28T10:26:51.443Z,9.03
2019-02-28T10:29:21.925Z,9.27
2019-02-28T10:31:51.423Z,9.10
2019-02-28T10:34:23.530Z,8.67
2019-02-28T10:36:52.144Z,8.67
2019-02-28T10:39:21.649Z,8.90
2019-02-28T10:41:51.185Z,8.37
2019-02-28T10:44:20.677Z,8.30
2019-02-28T10:46:53.648Z,8.43
2019-02-28T10:49:24.090Z,7.70
2019-02-28T10:51:52.622Z,7.90
2019-02-28T10:54:22.110Z,8.50
2019-02-28T10:56:51.629Z,8.13
2019-02-28T10:59:24.020Z,7.87
2019-02-28T11:01:52.427Z,7.80
2019-02-28T11:04:21.935Z,7.53
2019-02-28T11:06:51.420Z,7.53
2019-02-28T11:09:25.577Z,8.00
2019-02-28T11:11:55.163Z,7.43
2019-02-28T11:14:24.654Z,7.60
2019-02-28T11:16:58.959Z,7.90
2019-02-28T11:19:25.475Z,8.10
2019-02-28T11:21:54.964Z,7.70
2019-02-28T11:24:27.039Z,6.90
2019-02-28T11:26:56.427Z,7.70
2019-02-28T11:29:25.928Z,6.73
2019-02-28T11:31:55.553Z,7.00
2019-02-28T11:34:25.122Z,7.77
2019-02-28T11:36:54.647Z,7.47
2019-02-28T11:39:24.188Z,7.67
2019-02-28T11:41:53.846Z,7.40
2019-02-28T11:44:23.286Z,6.87
2019-02-28T11:46:52.820Z,6.67
2019-02-28T11:49:22.348Z,6.60
2019-02-28T11:51:53.002Z,6.53
2019-02-28T11:54:23.104Z,6.50
2019-02-28T11:56:52.686Z,7.13
2019-02-28T11:59:24.203Z,6.60
2019-02-28T12:01:53.438Z,7.13
2019-02-28T12:04:22.954Z,7.20
2019-02-28T12:06:52.469Z,6.10
2019-02-28T12:09:21.952Z,5.47
2019-02-28T12:11:51.448Z,6.17
2019-02-28T12:14:20.941Z,6.30
2019-02-28T12:16:53.617Z,5.13
2019-02-28T12:19:21.661Z,5.13
2019-02-28T12:21:51.222Z,4.50
2019-02-28T12:24:20.740Z,5.27
2019-02-28T12:26:52.592Z,5.40
2019-02-28T12:29:21.509Z,5.00
2019-02-28T12:31:51.080Z,5.00
2019-02-28T12:34:20.573Z,5.10
2019-02-28T12:36:50.227Z,4.93
2019-02-28T12:39:19.747Z,4.53
2019-02-28T12:41:49.205Z,4.23
2019-02-28T12:44:18.703Z,4.40
2019-02-28T12:46:48.489Z,3.77
2019-02-28T12:49:21.864Z,4.07
2019-02-28T12:51:49.228Z,4.10
2019-02-28T12:54:18.723Z,4.13
2019-02-28T12:56:48.641Z,4.60
2019-02-28T12:59:18.197Z,5.30
2019-02-28T13:01:47.765Z,4.43
2019-02-28T13:04:17.260Z,3.80
2019-02-28T13:06:46.737Z,4.03
2019-02-28T13:09:16.848Z,4.50
2019-02-28T13:11:47.327Z,4.90
2019-02-28T13:14:17.010Z,4.50
2019-02-28T13:16:46.666Z,4.20
2019-02-28T13:19:19.498Z,4.43
2019-02-28T13:21:47.884Z,4.50
2019-02-28T13:24:17.507Z,4.13
2019-02-28T13:26:47.007Z,4.43
2019-02-28T13:29:16.500Z,4.17
2019-02-28T13:31:45.962Z,4.20
2019-02-28T13:34:15.468Z,4.30
2019-02-28T13:36:44.977Z,4.43
2019-02-28T13:39:14.467Z,4.60
2019-02-28T13:41:43.951Z,4.73
2019-02-28T13:44:13.450Z,4.37
2019-02-28T13:46:42.942Z,4.27
2019-02-28T13:49:15.380Z,4.50
2019-02-28T13:51:43.827Z,4.90
2019-02-28T13:54:13.304Z,4.13
2019-02-28T13:56:42.873Z,3.87
2019-02-28T13:59:12.381Z,4.10
2019-02-28T14:01:41.906Z,4.57
2019-02-28T14:04:11.454Z,4.30
2019-02-28T14:06:41.043Z,4.60
2019-02-28T14:09:10.815Z,4.20
2019-02-28T14:11:41.908Z,4.33
2019-02-28T14:14:11.735Z,3.87
2019-02-28T14:16:41.198Z,4.07
2019-02-28T14:19:10.718Z,4.40
2019-02-28T14:21:40.335Z,4.30
2019-02-28T14:24:09.818Z,4.83
2019-02-28T14:26:42.754Z,4.03
2019-02-28T14:29:11.713Z,4.10
2019-02-28T14:31:41.217Z,4.33
2019-02-28T14:34:10.748Z,4.90
2019-02-28T14:36:41.894Z,4.10
2019-02-28T14:39:13.145Z,5.20
2019-02-28T14:41:42.626Z,4.10
2019-02-28T14:44:12.127Z,4.40
2019-02-28T14:46:41.646Z,4.90
2019-02-28T14:49:12.554Z,4.73
2019-02-28T14:51:42.341Z,4.60
2019-02-28T14:54:11.845Z,5.20
2019-02-28T14:56:42.398Z,4.97
2019-02-28T14:59:12.657Z,6.37
2019-02-28T15:01:42.191Z,4.63
2019-02-28T15:04:11.725Z,4.70
2019-02-28T15:06:41.204Z,4.27
2019-02-28T15:09:18.097Z,4.80
2019-02-28T15:11:48.263Z,4.20
2019-02-28T15:14:17.902Z,4.67
2019-02-28T15:16:47.459Z,3.60
2019-02-28T15:19:17.409Z,4.20
2019-02-28T15:21:47.017Z,4.50
2019-02-28T15:24:16.576Z,4.63
2019-02-28T15:26:46.225Z,4.50
2019-02-28T15:29:16.061Z,4.70
2019-02-28T15:31:45.707Z,6.13
2019-02-28T15:34:15.602Z,4.77
2019-02-28T15:36:45.386Z,6.07
2019-02-28T15:39:17.039Z,7.27
2019-02-28T15:41:46.609Z,6.53
2019-02-28T15:44:16.246Z,7.20
2019-02-28T15:46:47.413Z,8.23
2019-02-28T15:49:17.149Z,7.60
2019-02-28T15:51:46.773Z,6.80
2019-02-28T15:54:16.382Z,8.60
2019-02-28T15:56:45.913Z,6.50
2019-02-28T15:59:15.690Z,7.10
2019-02-28T16:01:57.311Z,6.67
2019-02-28T16:04:27.011Z,4.90
2019-02-28T16:07:04.967Z,4.13
2019-02-28T16:09:34.443Z,3.63
2019-02-28T16:12:04.033Z,3.50
2019-02-28T16:14:34.780Z,3.40
2019-02-28T16:17:05.231Z,4.10
2019-02-28T16:19:34.827Z,4.13
2019-02-28T16:22:04.463Z,4.93
2019-02-28T16:24:36.724Z,4.33
2019-02-28T16:27:05.471Z,4.50
2019-02-28T16:29:35.167Z,4.23
2019-02-28T16:32:04.810Z,4.37
2019-02-28T16:34:34.356Z,4.57
2019-02-28T16:37:03.915Z,4.33
2019-02-28T16:39:33.473Z,4.60
2019-02-28T16:42:03.125Z,4.87
2019-02-28T16:44:32.786Z,5.20
2019-02-28T16:47:02.351Z,5.00
2019-02-28T16:49:31.939Z,4.90
2019-02-28T16:52:02.613Z,4.83
2019-02-28T16:54:32.908Z,5.50
2019-02-28T16:57:02.539Z,4.90
2019-02-28T16:59:32.518Z,5.03
2019-02-28T17:02:07.679Z,5.73
2019-02-28T17:04:37.332Z,8.43
2019-02-28T17:07:09.399Z,14.33
2019-02-28T17:09:42.240Z,6.43
2019-02-28T17:12:27.269Z,5.03
2019-02-28T17:14:57.597Z,4.10
2019-02-28T17:17:43.457Z,5.07
2019-02-28T17:20:13.996Z,4.70
2019-02-28T17:22:43.530Z,5.57
2019-02-28T17:25:14.102Z,4.63
2019-02-28T17:27:49.731Z,4.43
2019-02-28T17:30:39.650Z,5.63
2019-02-28T17:33:09.863Z,4.60
2019-02-28T17:35:39.534Z,5.50
2019-02-28T17:38:09.094Z,5.93
2019-02-28T17:40:38.788Z,5.57
2019-02-28T17:43:08.664Z,5.13
2019-02-28T17:45:38.628Z,5.40
2019-02-28T17:48:58.068Z,6.03
2019-02-28T17:51:35.103Z,5.83
2019-02-28T17:54:36.285Z,5.50
2019-02-28T17:57:48.772Z,5.07
2019-02-28T18:00:53.689Z,4.70
2019-02-28T18:04:08.272Z,4.43
2019-02-28T18:07:27.665Z,4.90
2019-02-28T18:10:33.987Z,4.83
2019-02-28T18:13:41.569Z,5.20
2019-02-28T18:16:36.774Z,4.33
2019-02-28T18:19:33.363Z,3.73
2019-02-28T18:22:30.577Z,3.50
2019-02-28T18:25:29.703Z,4.27
2019-02-28T18:28:29.340Z,4.07
2019-02-28T18:31:19.177Z,4.23
2019-02-28T18:34:08.312Z,5.17
2019-02-28T18:36:40.241Z,4.57
2019-02-28T18:39:11.639Z,3.80
2019-02-28T18:41:43.027Z,4.53
2019-02-28T18:44:12.848Z,4.07
2019-02-28T18:46:42.404Z,3.80
2019-02-28T18:49:12.063Z,4.27
2019-02-28T18:51:41.719Z,3.60
2019-02-28T18:54:11.249Z,3.97
2019-02-28T18:56:40.855Z,4.50
2019-02-28T18:59:10.463Z,4.40
2019-02-28T19:01:40.067Z,3.90
2019-02-28T19:04:09.786Z,4.20
2019-02-28T19:06:39.368Z,4.40
2019-02-28T19:09:23.496Z,4.50
2019-02-28T19:11:53.064Z,4.93
2019-02-28T19:14:22.643Z,4.53
2019-02-28T19:16:52.210Z,4.70
2019-02-28T19:19:21.948Z,4.97
2019-02-28T19:21:51.532Z,5.07
2019-02-28T19:24:21.086Z,4.50
2019-02-28T19:26:50.711Z,4.53
2019-02-28T19:29:20.282Z,4.70
2019-02-28T19:31:49.800Z,5.47
2019-02-28T19:34:19.450Z,4.97
2019-02-28T19:36:49.051Z,4.83
2019-02-28T19:39:18.711Z,4.73
2019-02-28T19:41:48.290Z,5.47
2019-02-28T19:44:17.903Z,4.97
2019-02-28T19:46:47.524Z,4.67
2019-02-28T19:49:17.207Z,4.97
2019-02-28T19:51:46.869Z,4.77
2019-02-28T19:54:16.431Z,4.80
2019-02-28T19:56:46.056Z,5.63
2019-02-28T19:59:15.645Z,5.10
2019-02-28T20:01:45.454Z,5.10
2019-02-28T20:04:15.586Z,4.63
2019-02-28T20:06:45.335Z,5.37
2019-02-28T20:09:15.055Z,5.30
2019-02-28T20:11:44.654Z,5.17
2019-02-28T20:14:14.302Z,4.90
2019-02-28T20:16:44.317Z,5.33
2019-02-28T20:19:13.910Z,5.23
2019-02-28T20:21:43.517Z,4.83
2019-02-28T20:24:13.132Z,5.10
2019-02-28T20:26:42.649Z,5.67
2019-02-28T20:29:12.144Z,5.27
2019-02-28T20:31:42.751Z,5.67
2019-02-28T20:34:12.325Z,5.40
2019-02-28T20:36:41.899Z,5.70
2019-02-28T20:39:13.269Z,5.00
2019-02-28T20:41:42.833Z,5.20
2019-02-28T20:44:12.453Z,5.30
2019-02-28T20:46:42.097Z,4.97
2019-02-28T20:49:11.676Z,5.00
2019-02-28T20:51:41.281Z,5.63
2019-02-28T20:54:10.766Z,5.27
2019-02-28T20:56:40.325Z,5.37
2019-02-28T20:59:09.863Z,5.40
2019-02-28T21:01:39.472Z,4.90
2019-02-28T21:04:09.121Z,5.03
2019-02-28T21:06:38.714Z,4.60
2019-02-28T21:09:08.897Z,4.53
2019-02-28T21:11:38.633Z,4.33
2019-02-28T21:14:08.282Z,4.77
2019-02-28T21:16:37.887Z,5.30
2019-02-28T21:19:07.390Z,5.33
2019-02-28T21:21:37.169Z,4.70
2019-02-28T21:24:06.710Z,5.10
2019-02-28T21:26:36.229Z,5.77
2019-02-28T21:29:05.982Z,5.87
2019-02-28T21:31:35.606Z,6.30
2019-02-28T21:34:05.137Z,17.73
2019-02-28T21:36:38.007Z,19.50
2019-02-28T21:39:08.341Z,19.53
2019-02-28T21:41:37.949Z,18.50
2019-02-28T21:44:07.601Z,19.47
2019-02-28T21:46:37.166Z,19.57
2019-02-28T21:49:06.731Z,18.83
2019-02-28T21:51:36.251Z,18.13
2019-02-28T21:54:05.916Z,17.80
2019-02-28T21:56:35.462Z,17.07
2019-02-28T21:59:05.094Z,16.80
2019-02-28T22:01:34.746Z,17.07
2019-02-28T22:04:04.452Z,16.87
2019-02-28T22:06:34.089Z,16.70
2019-02-28T22:09:04.735Z,16.73
2019-02-28T22:11:34.332Z,17.47
2019-02-28T22:14:03.972Z,15.70
2019-02-28T22:16:33.819Z,16.20
2019-02-28T22:19:03.373Z,15.30
2019-02-28T22:21:33.008Z,15.03
2019-02-28T22:24:02.615Z,15.57
2019-02-28T22:26:34.093Z,15.97
2019-02-28T22:29:03.585Z,14.83
2019-02-28T22:31:43.786Z,15.10
2019-02-28T22:34:22.905Z,14.00
2019-02-28T22:36:52.599Z,13.77
2019-02-28T22:39:22.214Z,14.83
2019-02-28T22:41:51.839Z,13.80
2019-02-28T22:44:21.535Z,15.27
2019-02-28T22:46:51.165Z,13.57
2019-02-28T22:49:20.855Z,13.83
2019-02-28T22:51:50.486Z,13.80
2019-02-28T22:54:20.074Z,14.07
2019-02-28T22:56:49.746Z,13.97
2019-02-28T22:59:19.328Z,14.47
2019-02-28T23:01:49.378Z,14.03
2019-02-28T23:04:19.160Z,14.17
2019-02-28T23:06:48.730Z,14.20
2019-02-28T23:09:18.360Z,13.17
2019-02-28T23:11:47.968Z,13.50
2019-02-28T23:14:17.613Z,15.60
2019-02-28T23:16:47.154Z,13.83
2019-02-28T23:19:16.861Z,14.57
2019-02-28T23:21:46.483Z,13.43
2019-02-28T23:24:16.169Z,14.60
2019-02-28T23:27:10.569Z,14.80
2019-02-28T23:29:42.790Z,13.60
2019-02-28T23:32:34.159Z,13.43
2019-02-28T23:35:03.778Z,13.93
2019-02-28T23:37:33.390Z,14.07
2019-02-28T23:40:02.981Z,14.10
2019-02-28T23:42:32.644Z,13.37
2019-02-28T23:45:02.337Z,13.50
2019-02-28T23:47:31.993Z,12.67
2019-02-28T23:50:01.674Z,12.87
2019-02-28T23:52:31.299Z,13.20
2019-02-28T23:55:00.918Z,13.97
2019-02-28T23:57:30.553Z,13.73
